createdAt,value
2023-03-10T00:00:54.220Z,27.92
2023-03-10T00:03:24.420Z,27.95
2023-03-10T00:05:54.595Z,27.96
2023-03-10T00:08:27.075Z,27.98
2023-03-10T00:10:57.769Z,27.99
2023-03-10T00:13:28.250Z,27.99
2023-03-10T00:15:59.024Z,27.99
2023-03-10T00:18:29.328Z,28.01
2023-03-10T00:21:00.611Z,28.04
2023-03-10T00:23:31.172Z,28.07
2023-03-10T00:26:02.282Z,28.09
2023-03-10T00:28:32.474Z,28.11
2023-03-10T00:31:04.063Z,28.13
2023-03-10T00:33:35.393Z,28.15
2023-03-10T00:36:19.547Z,28.17
2023-03-10T00:38:51.839Z,28.19
2023-03-10T00:41:23.509Z,28.20
2023-03-10T00:43:54.249Z,28.23
2023-03-10T00:46:24.747Z,28.24
2023-03-10T00:48:55.037Z,28.27
2023-03-10T00:51:25.644Z,28.26
2023-03-10T00:53:58.220Z,28.27
2023-03-10T00:56:29.124Z,28.28
2023-03-10T00:59:00.834Z,28.27
2023-03-10T01:01:35.552Z,28.28
2023-03-10T01:04:11.419Z,28.29
2023-03-10T01:06:42.323Z,28.29
2023-03-10T01:09:12.753Z,28.31
2023-03-10T01:11:43.204Z,28.31
2023-03-10T01:14:16.014Z,28.33
2023-03-10T01:16:46.310Z,28.33
2023-03-10T01:19:20.484Z,28.34
2023-03-10T01:21:50.963Z,28.36
2023-03-10T01:24:21.380Z,28.35
2023-03-10T01:26:51.617Z,28.38
2023-03-10T01:29:21.978Z,28.38
2023-03-10T01:31:52.308Z,28.40
2023-03-10T01:34:22.777Z,28.41
2023-03-10T01:36:52.991Z,28.41
2023-03-10T01:39:23.117Z,28.42
2023-03-10T01:41:53.393Z,28.44
2023-03-10T01:44:23.698Z,28.44
2023-03-10T01:46:56.830Z,28.46
2023-03-10T01:49:40.404Z,28.48
2023-03-10T01:52:13.612Z,28.49
2023-03-10T01:54:47.814Z,28.50
2023-03-10T01:57:19.084Z,28.54
2023-03-10T01:59:49.488Z,28.53
2023-03-10T02:02:20.693Z,28.56
2023-03-10T02:04:53.342Z,28.59
2023-03-10T02:07:28.461Z,28.60
2023-03-10T02:09:59.115Z,28.61
2023-03-10T02:12:29.378Z,28.63
2023-03-10T02:14:59.908Z,28.65
2023-03-10T02:17:30.590Z,28.67
2023-03-10T02:20:13.209Z,28.67
2023-03-10T02:22:44.012Z,28.70
2023-03-10T02:25:25.608Z,28.72
2023-03-10T02:27:56.052Z,28.74
2023-03-10T02:30:34.627Z,28.76
2023-03-10T02:33:15.014Z,28.78
2023-03-10T02:35:47.060Z,28.81
2023-03-10T02:38:23.050Z,28.82
2023-03-10T02:40:54.435Z,28.84
2023-03-10T02:43:35.821Z,28.88
2023-03-10T02:46:18.771Z,28.90
2023-03-10T02:48:50.226Z,28.91
2023-03-10T02:51:28.789Z,28.94
2023-03-10T02:54:02.777Z,28.97
2023-03-10T02:56:36.113Z,28.99
2023-03-10T02:59:07.833Z,29.01
2023-03-10T03:01:40.163Z,29.03
2023-03-10T03:04:10.692Z,29.05
2023-03-10T03:06:41.760Z,29.07
2023-03-10T03:09:12.151Z,29.10
2023-03-10T03:11:43.352Z,29.12
2023-03-10T03:14:13.627Z,29.14
2023-03-10T03:16:43.966Z,29.16
2023-03-10T03:19:15.360Z,29.22
2023-03-10T03:21:51.245Z,29.23
2023-03-10T03:24:24.354Z,29.24
2023-03-10T03:26:54.718Z,29.27
2023-03-10T03:29:28.664Z,29.30
2023-03-10T03:31:59.702Z,29.31
2023-03-10T03:34:34.399Z,29.34
2023-03-10T03:37:07.558Z,29.35
2023-03-10T03:39:41.522Z,29.39
2023-03-10T03:42:12.346Z,29.43
2023-03-10T03:44:50.534Z,29.44
2023-03-10T03:47:21.128Z,29.48
2023-03-10T03:49:51.575Z,29.51
2023-03-10T03:52:21.976Z,29.53
2023-03-10T03:54:52.489Z,29.56
2023-03-10T03:57:23.677Z,29.59
2023-03-10T03:59:54.175Z,29.61
2023-03-10T04:02:24.519Z,29.64
2023-03-10T04:04:56.213Z,29.67
2023-03-10T04:07:26.561Z,29.69
2023-03-10T04:09:56.997Z,29.71
2023-03-10T04:12:28.877Z,29.73
2023-03-10T04:15:00.626Z,29.77
2023-03-10T04:17:31.231Z,29.79
2023-03-10T04:20:08.660Z,29.81
2023-03-10T04:22:44.069Z,29.85
2023-03-10T04:25:15.493Z,29.88
2023-03-10T04:27:46.123Z,29.90
2023-03-10T04:30:17.048Z,29.94
2023-03-10T04:32:51.626Z,29.97
2023-03-10T04:35:25.358Z,29.99
2023-03-10T04:37:56.368Z,30.03
2023-03-10T04:40:28.361Z,30.05
2023-03-10T04:42:59.310Z,30.08
2023-03-10T04:45:30.490Z,30.10
2023-03-10T04:48:01.224Z,30.14
2023-03-10T04:50:31.978Z,30.17
2023-03-10T04:53:02.966Z,30.21
2023-03-10T04:55:34.771Z,30.23
2023-03-10T04:58:07.046Z,30.26
2023-03-10T05:00:47.398Z,30.28
2023-03-10T05:03:24.745Z,30.33
2023-03-10T05:05:55.305Z,30.34
2023-03-10T05:08:25.610Z,30.37
2023-03-10T05:10:56.034Z,30.40
2023-03-10T05:13:26.438Z,30.43
2023-03-10T05:15:56.964Z,30.45
2023-03-10T05:18:27.256Z,30.48
2023-03-10T05:20:59.012Z,30.50
2023-03-10T05:23:31.283Z,30.54
2023-03-10T05:26:04.336Z,30.56
2023-03-10T05:28:35.169Z,30.58
2023-03-10T05:31:16.720Z,30.61
2023-03-10T05:33:50.801Z,30.63
2023-03-10T05:36:22.770Z,30.65
2023-03-10T05:38:53.626Z,30.67
2023-03-10T05:41:24.247Z,30.68
2023-03-10T05:43:58.860Z,30.69
2023-03-10T05:46:30.168Z,30.71
2023-03-10T05:49:02.059Z,30.72
2023-03-10T05:51:32.770Z,30.76
2023-03-10T05:54:07.583Z,30.75
2023-03-10T05:56:37.982Z,30.78
2023-03-10T05:59:08.744Z,30.80
2023-03-10T06:01:39.973Z,30.83
2023-03-10T06:04:10.444Z,30.60
2023-03-10T06:06:40.839Z,30.87
2023-03-10T06:09:11.266Z,30.87
2023-03-10T06:11:41.832Z,30.91
2023-03-10T06:14:12.040Z,30.91
2023-03-10T06:16:42.551Z,30.95
2023-03-10T06:19:12.896Z,30.98
2023-03-10T06:21:43.345Z,30.99
2023-03-10T06:24:13.503Z,31.01
2023-03-10T06:26:43.954Z,31.03
2023-03-10T06:29:14.181Z,31.05
2023-03-10T06:31:45.018Z,31.08
2023-03-10T06:34:15.469Z,31.10
2023-03-10T06:36:46.166Z,31.13
2023-03-10T06:39:16.346Z,31.19
2023-03-10T06:41:46.565Z,31.21
2023-03-10T06:44:20.391Z,31.23
2023-03-10T06:46:51.171Z,31.27
2023-03-10T06:49:21.626Z,31.28
2023-03-10T06:51:52.122Z,31.32
2023-03-10T06:54:24.361Z,31.34
2023-03-10T06:56:54.948Z,31.37
2023-03-10T06:59:25.781Z,31.41
2023-03-10T07:01:55.959Z,31.44
2023-03-10T07:04:26.794Z,31.47
2023-03-10T07:06:58.667Z,31.50
2023-03-10T07:09:28.893Z,31.53
2023-03-10T07:11:59.056Z,31.55
2023-03-10T07:14:29.340Z,31.57
2023-03-10T07:17:00.250Z,31.61
2023-03-10T07:19:31.026Z,31.65
2023-03-10T07:22:01.537Z,31.69
2023-03-10T07:24:31.942Z,31.73
2023-03-10T07:27:02.390Z,31.75
2023-03-10T07:29:32.843Z,31.80
2023-03-10T07:32:03.152Z,31.82
2023-03-10T07:34:33.456Z,31.87
2023-03-10T07:37:04.158Z,31.91
2023-03-10T07:39:35.043Z,31.96
2023-03-10T07:42:05.318Z,31.99
2023-03-10T07:44:36.682Z,32.03
2023-03-10T07:47:07.048Z,32.07
2023-03-10T07:49:37.776Z,32.10
2023-03-10T07:52:08.587Z,32.13
2023-03-10T07:54:38.945Z,32.18
2023-03-10T07:57:09.564Z,32.20
2023-03-10T07:59:40.325Z,32.25
2023-03-10T08:02:13.768Z,32.28
2023-03-10T08:04:44.223Z,32.31
2023-03-10T08:07:14.939Z,32.35
2023-03-10T08:09:50.437Z,32.38
2023-03-10T08:12:22.754Z,32.43
2023-03-10T08:14:54.026Z,32.46
2023-03-10T08:17:26.110Z,32.48
2023-03-10T08:19:56.623Z,32.52
2023-03-10T08:22:26.861Z,32.57
2023-03-10T08:24:57.668Z,32.60
2023-03-10T08:27:29.247Z,32.63
2023-03-10T08:29:59.528Z,32.65
2023-03-10T08:32:30.511Z,32.70
2023-03-10T08:35:02.171Z,32.73
2023-03-10T08:37:32.691Z,32.77
2023-03-10T08:40:03.116Z,32.80
2023-03-10T08:42:33.422Z,32.80
2023-03-10T08:45:03.969Z,32.89
2023-03-10T08:47:34.375Z,32.93
2023-03-10T08:50:05.489Z,32.94
2023-03-10T08:52:35.746Z,32.98
2023-03-10T08:55:06.716Z,33.02
2023-03-10T08:57:37.014Z,33.05
2023-03-10T09:00:07.874Z,33.08
2023-03-10T09:02:38.215Z,33.11
2023-03-10T09:05:08.783Z,33.13
2023-03-10T09:07:39.288Z,33.17
2023-03-10T09:10:09.691Z,33.20
2023-03-10T09:12:40.011Z,33.23
2023-03-10T09:15:10.412Z,33.28
2023-03-10T09:17:41.015Z,33.28
2023-03-10T09:20:12.089Z,33.17
2023-03-10T09:22:42.357Z,32.88
2023-03-10T09:25:13.172Z,32.74
2023-03-10T09:27:45.465Z,32.60
2023-03-10T09:30:17.300Z,32.53
2023-03-10T09:32:47.671Z,32.46
2023-03-10T09:35:18.039Z,32.42
2023-03-10T09:37:48.883Z,32.37
2023-03-10T09:40:22.783Z,32.35
2023-03-10T09:43:09.870Z,32.33
2023-03-10T09:45:55.696Z,32.27
2023-03-10T09:48:28.654Z,32.28
2023-03-10T09:51:00.671Z,32.27
2023-03-10T09:53:42.854Z,32.26
2023-03-10T09:56:17.555Z,32.23
2023-03-10T09:58:49.710Z,32.29
2023-03-10T10:01:22.890Z,32.35
2023-03-10T10:03:58.658Z,32.30
2023-03-10T10:06:31.969Z,32.28
2023-03-10T10:09:05.684Z,32.26
2023-03-10T10:11:39.414Z,32.24
2023-03-10T10:14:28.390Z,32.22
2023-03-10T10:17:02.546Z,32.25
2023-03-10T10:19:36.680Z,32.24
2023-03-10T10:22:10.285Z,32.23
2023-03-10T10:24:42.026Z,32.23
2023-03-10T10:27:12.537Z,32.18
2023-03-10T10:29:45.106Z,32.15
2023-03-10T10:32:16.711Z,32.07
2023-03-10T10:34:47.926Z,32.00
2023-03-10T10:37:41.522Z,32.03
2023-03-10T10:40:25.317Z,32.03
2023-03-10T10:42:57.411Z,32.02
2023-03-10T10:45:36.885Z,32.03
2023-03-10T10:48:07.575Z,32.03
2023-03-10T10:50:39.000Z,32.02
2023-03-10T10:53:15.584Z,31.61
2023-03-10T10:55:47.579Z,32.04
2023-03-10T10:58:26.666Z,32.20
2023-03-10T11:01:00.042Z,32.32
2023-03-10T11:03:31.937Z,32.38
2023-03-10T11:06:04.381Z,32.43
2023-03-10T11:08:36.589Z,32.45
2023-03-10T11:11:09.905Z,32.47
2023-03-10T11:14:00.820Z,32.50
2023-03-10T11:16:40.564Z,32.52
2023-03-10T11:19:37.297Z,32.52
2023-03-10T11:22:23.256Z,32.51
2023-03-10T11:24:58.890Z,32.51
2023-03-10T11:27:49.232Z,32.47
2023-03-10T11:30:31.256Z,32.47
2023-03-10T11:33:11.134Z,32.44
2023-03-10T11:35:47.386Z,32.41
2023-03-10T11:38:40.017Z,32.42
2023-03-10T11:41:15.078Z,32.38
2023-03-10T11:43:55.114Z,32.35
2023-03-10T11:46:26.059Z,32.35
2023-03-10T11:49:08.941Z,32.34
2023-03-10T11:51:42.178Z,32.27
2023-03-10T11:54:15.177Z,32.29
2023-03-10T11:56:45.673Z,32.27
2023-03-10T11:59:26.691Z,32.23
2023-03-10T12:02:00.940Z,32.21
2023-03-10T12:04:34.148Z,32.18
2023-03-10T12:07:23.099Z,32.16
2023-03-10T12:09:53.495Z,32.15
2023-03-10T12:12:34.532Z,32.11
2023-03-10T12:15:07.708Z,32.11
2023-03-10T12:17:39.172Z,32.09
2023-03-10T12:20:15.625Z,32.05
2023-03-10T12:22:51.633Z,32.04
2023-03-10T12:25:31.327Z,32.00
2023-03-10T12:28:19.993Z,31.96
2023-03-10T12:30:58.048Z,31.94
2023-03-10T12:33:34.189Z,31.91
2023-03-10T12:36:04.728Z,31.89
2023-03-10T12:38:34.893Z,31.87
2023-03-10T12:41:05.147Z,31.85
2023-03-10T12:43:50.824Z,31.82
2023-03-10T12:46:24.266Z,31.80
2023-03-10T12:49:14.277Z,31.77
2023-03-10T12:51:54.897Z,31.75
2023-03-10T12:54:37.278Z,31.72
2023-03-10T12:57:19.029Z,31.71
2023-03-10T12:59:52.234Z,31.68
2023-03-10T13:02:34.056Z,31.65
2023-03-10T13:05:09.211Z,31.64
2023-03-10T13:07:39.800Z,31.61
2023-03-10T13:10:18.841Z,31.58
2023-03-10T13:12:53.209Z,31.56
2023-03-10T13:15:28.152Z,31.54
2023-03-10T13:18:18.922Z,31.53
2023-03-10T13:20:50.124Z,31.50
2023-03-10T13:23:25.282Z,31.49
2023-03-10T13:25:56.498Z,31.46
2023-03-10T13:28:27.911Z,31.43
2023-03-10T13:31:16.556Z,31.41
2023-03-10T13:33:53.401Z,31.40
2023-03-10T13:36:24.247Z,31.38
2023-03-10T13:38:54.744Z,31.35
2023-03-10T13:41:25.910Z,31.33
2023-03-10T13:43:56.627Z,31.31
2023-03-10T13:46:30.638Z,31.28
2023-03-10T13:49:07.986Z,31.27
2023-03-10T13:51:39.079Z,31.24
2023-03-10T13:54:22.039Z,31.24
2023-03-10T13:56:54.046Z,31.21
2023-03-10T13:59:26.025Z,31.19
2023-03-10T14:01:58.108Z,31.14
2023-03-10T14:04:51.405Z,31.13
2023-03-10T14:07:22.667Z,31.11
2023-03-10T14:10:10.446Z,31.10
2023-03-10T14:12:46.933Z,31.07
2023-03-10T14:15:17.152Z,31.06
2023-03-10T14:18:05.783Z,31.05
2023-03-10T14:20:46.400Z,31.03
2023-03-10T14:23:27.841Z,31.02
2023-03-10T14:25:59.349Z,31.02
2023-03-10T14:28:29.580Z,31.01
2023-03-10T14:31:04.051Z,31.01
2023-03-10T14:33:34.549Z,31.00
2023-03-10T14:36:07.371Z,30.99
2023-03-10T14:38:37.612Z,30.98
2023-03-10T14:41:07.958Z,30.97
2023-03-10T14:43:38.392Z,30.96
2023-03-10T14:46:09.774Z,30.96
2023-03-10T14:48:43.343Z,30.95
2023-03-10T14:51:25.683Z,30.94
2023-03-10T14:54:03.185Z,30.93
2023-03-10T14:56:33.648Z,30.94
2023-03-10T14:59:03.864Z,30.93
2023-03-10T15:01:34.068Z,30.94
2023-03-10T15:04:04.508Z,30.85
2023-03-10T15:06:34.782Z,30.65
2023-03-10T15:09:05.394Z,30.35
2023-03-10T15:11:37.677Z,30.10
2023-03-10T15:14:15.614Z,29.89
2023-03-10T15:16:46.206Z,29.77
2023-03-10T15:19:19.978Z,29.67
2023-03-10T15:21:50.265Z,29.57
2023-03-10T15:24:20.950Z,29.46
2023-03-10T15:26:51.255Z,29.39
2023-03-10T15:29:22.435Z,29.32
2023-03-10T15:31:52.778Z,29.28
2023-03-10T15:34:23.444Z,29.27
2023-03-10T15:36:53.889Z,29.23
2023-03-10T15:39:31.622Z,29.20
2023-03-10T15:42:02.915Z,29.14
2023-03-10T15:44:33.149Z,29.13
2023-03-10T15:47:03.586Z,29.09
2023-03-10T15:49:33.908Z,29.07
2023-03-10T15:52:04.297Z,29.03
2023-03-10T15:54:35.909Z,29.00
2023-03-10T15:57:07.123Z,28.95
2023-03-10T15:59:39.596Z,28.88
2023-03-10T16:02:12.272Z,28.82
2023-03-10T16:04:45.500Z,28.79
2023-03-10T16:07:15.701Z,28.72
2023-03-10T16:09:46.065Z,28.70
2023-03-10T16:12:16.300Z,28.71
2023-03-10T16:14:46.609Z,28.72
2023-03-10T16:17:17.035Z,28.71
2023-03-10T16:19:47.237Z,28.68
2023-03-10T16:22:17.603Z,28.66
2023-03-10T16:24:48.436Z,28.63
2023-03-10T16:27:18.802Z,28.62
2023-03-10T16:29:49.921Z,28.64
2023-03-10T16:32:21.068Z,28.59
2023-03-10T16:34:54.648Z,28.54
2023-03-10T16:37:27.202Z,28.46
2023-03-10T16:39:57.939Z,28.43
2023-03-10T16:42:28.628Z,28.40
2023-03-10T16:44:59.162Z,28.40
2023-03-10T16:47:30.624Z,28.35
2023-03-10T16:50:00.846Z,28.32
2023-03-10T16:52:32.072Z,28.30
2023-03-10T16:55:06.350Z,28.26
2023-03-10T16:57:37.489Z,28.28
2023-03-10T17:00:10.778Z,28.31
2023-03-10T17:02:41.637Z,28.33
2023-03-10T17:05:13.817Z,28.32
2023-03-10T17:07:54.969Z,28.29
2023-03-10T17:10:28.225Z,28.27
2023-03-10T17:12:59.050Z,28.28
2023-03-10T17:15:31.066Z,28.27
2023-03-10T17:18:01.468Z,28.26
2023-03-10T17:20:31.735Z,28.23
2023-03-10T17:23:02.017Z,28.21
2023-03-10T17:28:03.124Z,28.17
2023-03-10T17:30:33.334Z,28.14
2023-03-10T17:33:06.440Z,28.12
2023-03-10T17:35:40.047Z,28.10
2023-03-10T17:38:10.354Z,28.09
2023-03-10T17:40:46.804Z,28.05
2023-03-10T17:43:33.023Z,28.04
2023-03-10T17:46:06.013Z,28.02
2023-03-10T17:48:36.819Z,27.98
2023-03-10T17:51:07.342Z,27.97
2023-03-10T17:53:37.798Z,27.97
2023-03-10T17:56:09.199Z,27.95
2023-03-10T17:58:39.604Z,27.93
2023-03-10T18:01:21.484Z,27.91
2023-03-10T18:03:51.898Z,27.89
2023-03-10T18:06:27.075Z,27.86
2023-03-10T18:08:57.482Z,27.84
2023-03-10T18:11:28.498Z,27.81
2023-03-10T18:13:58.990Z,27.79
2023-03-10T18:16:31.237Z,27.79
2023-03-10T18:19:01.652Z,27.76
2023-03-10T18:21:32.292Z,27.75
2023-03-10T18:24:02.505Z,27.74
2023-03-10T18:26:32.882Z,27.70
2023-03-10T18:29:03.195Z,27.70
2023-03-10T18:31:34.741Z,27.67
2023-03-10T18:34:05.797Z,27.66
2023-03-10T18:36:36.246Z,27.63
2023-03-10T18:39:08.675Z,27.62
2023-03-10T18:41:39.006Z,27.59
2023-03-10T18:44:09.291Z,27.58
2023-03-10T18:46:39.725Z,27.58
2023-03-10T18:49:10.022Z,27.57
2023-03-10T18:51:40.510Z,27.54
2023-03-10T18:54:10.937Z,27.53
2023-03-10T18:56:41.710Z,27.52
2023-03-10T18:59:12.232Z,27.49
2023-03-10T19:01:42.964Z,27.47
2023-03-10T19:04:13.488Z,27.47
2023-03-10T19:06:43.806Z,27.45
2023-03-10T19:09:14.404Z,27.42
2023-03-10T19:11:44.632Z,27.44
2023-03-10T19:14:15.153Z,27.42
2023-03-10T19:16:47.426Z,27.39
2023-03-10T19:19:18.078Z,27.39
2023-03-10T19:21:48.304Z,27.39
2023-03-10T19:24:18.501Z,27.36
2023-03-10T19:26:49.340Z,27.35
2023-03-10T19:29:19.706Z,27.33
2023-03-10T19:31:49.950Z,27.33
2023-03-10T19:34:20.209Z,27.29
2023-03-10T19:36:50.738Z,27.29
2023-03-10T19:39:20.994Z,27.28
2023-03-10T19:41:51.386Z,27.25
2023-03-10T19:44:23.310Z,27.24
2023-03-10T19:46:53.654Z,27.23
2023-03-10T19:49:24.668Z,27.18
2023-03-10T19:51:54.980Z,27.18
2023-03-10T19:54:25.480Z,27.18
2023-03-10T19:56:55.758Z,27.16
2023-03-10T19:59:26.454Z,27.15
2023-03-10T20:01:56.709Z,27.15
2023-03-10T20:04:26.944Z,27.14
2023-03-10T20:06:57.213Z,27.13
2023-03-10T20:09:27.795Z,27.12
2023-03-10T20:11:58.445Z,27.11
2023-03-10T20:14:28.625Z,27.10
2023-03-10T20:16:59.620Z,27.07
2023-03-10T20:19:29.885Z,27.07
2023-03-10T20:22:00.371Z,27.06
2023-03-10T20:24:30.569Z,27.05
2023-03-10T20:27:01.615Z,27.04
2023-03-10T20:29:31.973Z,27.03
2023-03-10T20:32:02.292Z,27.02
2023-03-10T20:34:33.174Z,27.05
2023-03-10T20:37:03.570Z,27.11
2023-03-10T20:39:33.759Z,27.16
2023-03-10T20:42:04.111Z,27.23
2023-03-10T20:44:34.831Z,27.23
2023-03-10T20:47:05.637Z,27.21
2023-03-10T20:49:35.816Z,27.18
2023-03-10T20:52:06.140Z,27.16
2023-03-10T20:54:36.320Z,27.13
2023-03-10T20:57:06.804Z,27.10
2023-03-10T20:59:37.835Z,27.07
2023-03-10T21:02:08.470Z,27.07
2023-03-10T21:04:38.812Z,27.05
2023-03-10T21:07:09.576Z,27.02
2023-03-10T21:09:40.034Z,27.00
2023-03-10T21:12:10.440Z,26.99
2023-03-10T21:14:40.667Z,26.98
2023-03-10T21:17:10.965Z,27.02
2023-03-10T21:19:41.688Z,27.07
2023-03-10T21:22:11.846Z,27.11
2023-03-10T21:24:42.229Z,27.15
2023-03-10T21:27:12.870Z,27.16
2023-03-10T21:29:43.951Z,27.12
2023-03-10T21:32:14.734Z,27.11
2023-03-10T21:34:44.939Z,27.08
2023-03-10T21:37:15.426Z,27.07
2023-03-10T21:39:45.665Z,27.04
2023-03-10T21:42:16.745Z,27.01
2023-03-10T21:44:49.415Z,26.43
2023-03-10T21:47:19.870Z,26.94
2023-03-10T21:49:50.590Z,26.95
2023-03-10T21:52:20.769Z,26.99
2023-03-10T21:54:51.257Z,27.04
2023-03-10T21:57:21.541Z,27.08
2023-03-10T21:59:52.146Z,27.11
2023-03-10T22:02:40.364Z,27.11
2023-03-10T22:05:13.378Z,27.06
2023-03-10T22:07:43.688Z,27.03
2023-03-10T22:10:14.657Z,27.00
2023-03-10T22:12:45.278Z,26.97
2023-03-10T22:15:22.628Z,26.96
2023-03-10T22:17:54.027Z,26.89
2023-03-10T22:20:26.109Z,26.86
2023-03-10T22:22:56.645Z,26.85
2023-03-10T22:25:27.960Z,26.88
2023-03-10T22:27:58.469Z,26.92
2023-03-10T22:30:29.301Z,26.97
2023-03-10T22:33:00.096Z,26.99
2023-03-10T22:35:30.925Z,27.03
2023-03-10T22:38:01.676Z,27.04
2023-03-10T22:40:32.635Z,27.04
2023-03-10T22:43:02.795Z,27.00
2023-03-10T22:45:34.023Z,26.98
2023-03-10T22:48:05.979Z,26.95
2023-03-10T22:50:38.274Z,26.92
2023-03-10T22:53:10.548Z,26.89
2023-03-10T22:55:40.950Z,26.85
2023-03-10T22:58:12.404Z,26.82
2023-03-10T23:00:43.950Z,26.84
2023-03-10T23:03:15.234Z,26.86
2023-03-10T23:05:46.780Z,26.89
2023-03-10T23:08:18.278Z,26.97
2023-03-10T23:10:48.494Z,27.02
2023-03-10T23:13:18.815Z,27.09
2023-03-10T23:15:49.212Z,27.12
2023-03-10T23:18:21.143Z,27.17
2023-03-10T23:20:51.930Z,27.21
2023-03-10T23:23:22.226Z,27.29
2023-03-10T23:25:53.297Z,27.35
2023-03-10T23:28:23.671Z,27.43
2023-03-10T23:30:55.696Z,27.49
2023-03-10T23:33:26.295Z,27.54
2023-03-10T23:35:56.659Z,27.60
2023-03-10T23:38:27.816Z,27.66
2023-03-10T23:40:58.288Z,27.71
2023-03-10T23:43:28.915Z,27.75
2023-03-10T23:45:59.328Z,27.79
2023-03-10T23:48:29.532Z,27.84
2023-03-10T23:50:59.920Z,27.89
2023-03-10T23:53:30.542Z,27.90
2023-03-10T23:56:01.548Z,27.95
2023-03-10T23:58:31.917Z,27.98
